ePrivacy and GPDR Cookie Consent by Cookie Consent
EmailTwitter


Observations de surface / Royaume-Uni / EGLL (03772)

Régions: Québec | Canada | États-Unis | Europe | France | UK | Ailleurs
Station
Affichage
Infos & localisation pour EGLL (03772) | Aide pour décoder les METARs

Observations prises le 2021-09-21 à 02H20 UTC à LONDON/HEATHROW, UK (EGLL)

Température: 11.0 Celsius

Point de rosée: 11.0 Celsius

Humidité relative: 100%

Vents: Ouest-nord-ouest à 6 km/h ou 3 noeuds.

Pression au niveau moyen de la mer: 102.90 kilopascals.

Visibilité horizontale: 6.21 milles terrestres ou 9.94 kilomètres.

Observation METAR:

EGLL 210220Z AUTO 29003KT 9999 NCD 11/11 Q1029 NOSIG=